ADDS METAR Data INFO
IDs: Format: Raw Decoded Include TAF

Data at: 0053 UTC 22 Oct 2017

KMML 212356Z AUTO 30012KT 10SM OVC085 12/06 A2979 RMK AO2 RAB09E20 SLP088 P0000 60005 T01220056 10233 20122 53043
KMML 212256Z AUTO 31022G27KT 10SM BKN070 OVC095 13/05 A2973 RMK AO2 PK WND 30027/2254 SLP068 T01280050
KMML 212156Z AUTO 29015KT 10SM OVC055 14/07 A2970 RMK AO2 RAB41E51 SLP059 P0000 T01390067
KMML 212056Z AUTO 29016G25KT 10SM OVC044 14/08 A2966 RMK AO2 PRESRR SLP043 60005 T01440078 53033
KMML 211956Z AUTO 29023G26KT 10SM BKN030 BKN090 15/09 A2959 RMK AO2 PK WND 29030/1911 WSHFT 1843 LTG DSNT NE AND E TSE1859B01E12B14E37RAE02 SLP018 P0001 T01500094
KMML 211943Z AUTO 29020G28KT 10SM BKN030 BKN044 OVC085 14/09 A2959 RMK AO2 PK WND 29030/1911 WSHFT 1843 LTG DSNT NE-S TSE1859B01E12B14E37RAE02 P0001
KMML 211914Z AUTO 28021G30KT 10SM VCTS SCT029 BKN036 OVC060 17/13 A2957 RMK AO2 PK WND 29030/1911 WSHFT 1843 LTG DSNT N AND NE TSE1859B01E12B14RAE02 P0000
KMML 211906Z AUTO 27021KT 10SM VCTS SCT029 BKN040 BKN055 18/14 A2956 RMK AO2 WSHFT 1843 LTG DSNT N AND NE TSE1859B01RAE02 P0000
KMML 211859Z AUTO 27016G22KT 9SM -RA BKN029 BKN036 OVC043 17/16 A2955 RMK AO2 WSHFT 1843 LTG DSNT N TSE59 P0000
KMML 211856Z AUTO 27016G22KT 7SM -TSRA BKN029 BKN036 OVC043 17/16 A2955 RMK AO2 PK WND 20029/1816 WSHFT 1833 TSB26RAB44 SLP006 P0004 T01720156
KMML 211853Z AUTO 26014G22KT 5SM -TSRA BR BKN029 BKN035 OVC043 17/16 A2955 RMK AO2 PK WND 20029/1816 WSHFT 1833 LTG DSNT S TSB26RAB44 P0004
KMML 211834Z AUTO 19021G24KT 10SM VCTS BKN027 BKN035 OVC080 23/17 A2952 RMK AO2 PK WND 20029/1816 LTG DSNT N AND S AND SW TSB26
KMML 211826Z AUTO 19014G27KT 10SM VCTS SCT027 BKN035 OVC080 23/17 A2954 RMK AO2 PK WND 20029/1816 LTG DSNT S AND SW TSB26
KMML 211756Z AUTO 21021G29KT 10SM BKN027 OVC032 22/17 A2954 RMK AO2 PK WND 19029/1748 SLP000 T02220167 10228 20183 53004
KMML 211747Z AUTO 19021G24KT 10SM BKN027 OVC032 23/17 A2954 RMK AO2 PK WND 20028/1727
KMML 211656Z AUTO 19020G27KT 10SM FEW023 BKN043 BKN055 22/17 A2954 RMK AO2 PK WND 19032/1557 SLP999 T02170167
KMML 211556Z AUTO 20027G30KT 10SM FEW020 BKN070 22/17 A2952 RMK AO2 PK WND 20031/1556 SLP993 T02170167
KMML 211545Z AUTO 19016G30KT 10SM SCT020 BKN070 21/17 A2953 RMK AO2 PK WND 19031/1521
KMML 211518Z AUTO 19020G30KT 10SM BKN020 BKN070 21/17 A2953 RMK AO2 PK WND 19030/1511
KMML 211456Z AUTO 19017G26KT 10SM SCT018 BKN060 20/16 A2953 RMK AO2 PK WND 18027/1433 SLP996 T02000161 56002
KMML 211448Z AUTO 18019G24KT 10SM SCT018 OVC060 19/16 A2953 RMK AO2 PK WND 18027/1433
KMML 211408Z AUTO 17014KT 10SM BKN018 OVC070 19/16 A2954 RMK AO2
KMML 211305Z AUTO 18017G23KT 10SM FEW020 BKN032 OVC042 19/16 A2953 RMK AO2
KMML 211256Z AUTO 17016G23KT 10SM BKN022 OVC030 19/15 A2953 RMK AO2 SLP996 T01890150
KMML 211208Z AUTO 17016KT 10SM BKN023 OVC033 18/14 A2953 RMK AO2
KMML 211156Z AUTO 17015KT 10SM SCT025 OVC035 18/14 A2954 RMK AO2 SLP999 T01830144 10189 20178 53005 TSNO
KMML 211056Z AUTO 17019G27KT 10SM CLR 18/14 A2952 RMK AO2 PK WND 18027/1052 SLP992 T01830139
KMML 210956Z AUTO 17016KT 10SM SCT030 18/14 A2953 RMK AO2 SLP995 T01780144
KMML 210856Z AUTO 17013G21KT 10SM CLR 18/14 A2952 RMK AO2 SLP993 T01780139 58004
KMML 210756Z AUTO 18018G24KT 10SM CLR 18/14 A2954 RMK AO2 PK WND 18028/0718 SLP998 T01830139
KMML 210656Z AUTO 19022G29KT 10SM CLR 19/14 A2954 RMK AO2 PK WND 19032/0623 SLP998 T01890139
KMML 210556Z AUTO 19022G31KT 10SM CLR 19/14 A2954 RMK AO2 PK WND 20032/0531 SLP998 T01890139 10222 20189 402560144 58015
KMML 210456Z AUTO 18020G28KT 10SM CLR 19/14 A2956 RMK AO2 PK WND 18028/0454 SLP006 T01940139
KMML 210356Z AUTO 18017G27KT 10SM FEW060 20/14 A2958 RMK AO2 PK WND 18032/0305 SLP013 T02000139
KMML 210256Z AUTO 18021G29KT 10SM FEW075 21/14 A2958 RMK AO2 PK WND 18030/0236 SLP015 T02060139 50002 TSNO
KMML 210156Z AUTO 17020G26KT 10SM OVC070 21/13 A2958 RMK AO2 PK WND 18028/0115 SLP017 T02060133
KMML 210056Z AUTO 18020G27KT 10SM CLR 21/13 A2959 RMK AO2 PK WND 19030/0006 SLP020 T02110133 TSNO
KMML 202356Z AUTO 18022G29KT 10SM CLR 22/13 A2958 RMK AO2 PK WND 17031/2342 SLP013 T02220128 10256 20222 55005
KMML 202256Z AUTO 18021G26KT 10SM CLR 23/12 A2957 RMK AO2 PK WND 19034/2157 SLP011 T02280122
KMML 202156Z AUTO 20026G32KT 10SM CLR 25/12 A2958 RMK AO2 PK WND 19035/2125 SLP012 T02500117
KMML 202056Z AUTO 20026G35KT 10SM CLR 25/12 A2959 RMK AO2 PK WND 20041/2028 SLP017 T02500122 56032
KMML 201956Z AUTO 20025G36KT 10SM CLR 26/12 A2962 RMK AO2 PK WND 20038/1934 SLP025 T02560122
KMML 201856Z AUTO 19026G33KT 10SM CLR 24/13 A2965 RMK AO2 PK WND 19033/1855 SLP036 T02390128
KMML 201756Z AUTO 20024G30KT 10SM CLR 23/12 A2969 RMK AO2 PK WND 19030/1747 SLP051 T02280122 10228 20144 58026
KMML 201656Z AUTO 19021G25KT 10SM CLR 21/12 A2972 RMK AO2 PK WND 20031/1605 SLP062 T02110117
KMML 201556Z AUTO 20020G26KT 10SM CLR 19/11 A2976 RMK AO2 PK WND 19031/1531 SLP075 T01940111
KMML 201456Z AUTO 20021G27KT 10SM CLR 17/10 A2977 RMK AO2 PK WND 20028/1431 SLP080 T01720100 57007
KMML 201356Z AUTO 20021G31KT 10SM CLR 16/09 A2977 RMK AO2 PK WND 20031/1352 SLP083 T01560094
KMML 201256Z AUTO 20016G22KT 10SM CLR 14/09 A2978 RMK AO2 SLP086 T01440089